sensor_id;sensor_type;location;lat;lon;timestamp;pressure;altitude;pressure_sealevel;temperature;humidity
20825;BME280;10573;50.936;6.978;2023-04-01T00:00:03;99088.50;;;12.81;61.54
20825;BME280;10573;50.936;6.978;2023-04-01T00:02:29;99090.97;;;13.10;60.79
20825;BME280;10573;50.936;6.978;2023-04-01T00:04:54;99081.50;;;13.06;60.63
20825;BME280;10573;50.936;6.978;2023-04-01T00:07:19;99082.69;;;12.97;61.14
20825;BME280;10573;50.936;6.978;2023-04-01T00:09:45;99086.16;;;13.13;60.64
20825;BME280;10573;50.936;6.978;2023-04-01T00:12:10;99088.91;;;13.19;60.62
20825;BME280;10573;50.936;6.978;2023-04-01T00:14:36;99084.00;;;13.01;60.78
20825;BME280;10573;50.936;6.978;2023-04-01T00:17:02;99083.28;;;13.34;60.11
20825;BME280;10573;50.936;6.978;2023-04-01T00:19:27;99086.16;;;13.13;60.46
20825;BME280;10573;50.936;6.978;2023-04-01T00:21:53;99081.91;;;13.03;60.31
20825;BME280;10573;50.936;6.978;2023-04-01T00:24:18;99082.41;;;12.79;61.04
20825;BME280;10573;50.936;6.978;2023-04-01T00:26:44;99084.28;;;12.78;61.14
20825;BME280;10573;50.936;6.978;2023-04-01T00:29:09;99081.00;;;12.89;60.79
20825;BME280;10573;50.936;6.978;2023-04-01T00:31:34;99077.94;;;12.71;61.42
20825;BME280;10573;50.936;6.978;2023-04-01T00:34:00;99075.00;;;12.72;61.21
20825;BME280;10573;50.936;6.978;2023-04-01T00:36:25;99076.91;;;13.14;60.61
20825;BME280;10573;50.936;6.978;2023-04-01T00:38:50;99082.78;;;12.75;61.25
20825;BME280;10573;50.936;6.978;2023-04-01T00:41:17;99072.59;;;12.91;61.53
20825;BME280;10573;50.936;6.978;2023-04-01T00:43:44;99063.97;;;13.36;60.00
20825;BME280;10573;50.936;6.978;2023-04-01T00:46:10;99076.97;;;12.85;61.21
20825;BME280;10573;50.936;6.978;2023-04-01T00:48:38;99069.69;;;12.99;61.02
20825;BME280;10573;50.936;6.978;2023-04-01T00:53:30;99079.19;;;12.68;61.67
20825;BME280;10573;50.936;6.978;2023-04-01T00:55:58;99066.56;;;12.67;62.17
20825;BME280;10573;50.936;6.978;2023-04-01T00:58:25;99075.09;;;12.86;61.70
20825;BME280;10573;50.936;6.978;2023-04-01T01:00:52;99061.97;;;12.68;62.12
20825;BME280;10573;50.936;6.978;2023-04-01T01:03:18;99064.22;;;12.99;61.15
20825;BME280;10573;50.936;6.978;2023-04-01T01:08:32;99063.28;;;13.27;60.24
20825;BME280;10573;50.936;6.978;2023-04-01T01:11:03;99064.66;;;13.03;60.60
20825;BME280;10573;50.936;6.978;2023-04-01T01:13:32;99060.50;;;13.14;60.35
20825;BME280;10573;50.936;6.978;2023-04-01T01:16:06;99061.66;;;12.91;61.25
20825;BME280;10573;50.936;6.978;2023-04-01T01:18:36;99065.69;;;12.60;62.03
20825;BME280;10573;50.936;6.978;2023-04-01T01:28:27;99063.06;;;12.80;61.33
20825;BME280;10573;50.936;6.978;2023-04-01T01:31:11;99049.09;;;13.03;61.09
20825;BME280;10573;50.936;6.978;2023-04-01T01:36:18;99053.94;;;13.01;60.93
20825;BME280;10573;50.936;6.978;2023-04-01T01:38:46;99059.06;;;12.76;61.51
20825;BME280;10573;50.936;6.978;2023-04-01T01:41:13;99064.06;;;12.72;62.25
20825;BME280;10573;50.936;6.978;2023-04-01T01:43:42;99057.69;;;12.58;62.93
20825;BME280;10573;50.936;6.978;2023-04-01T01:46:12;99048.09;;;12.69;62.84
20825;BME280;10573;50.936;6.978;2023-04-01T01:48:39;99053.97;;;12.73;62.63
20825;BME280;10573;50.936;6.978;2023-04-01T01:51:07;99054.34;;;12.63;62.69
20825;BME280;10573;50.936;6.978;2023-04-01T01:53:32;99053.19;;;12.44;63.12
20825;BME280;10573;50.936;6.978;2023-04-01T01:55:58;99053.97;;;12.73;63.17
20825;BME280;10573;50.936;6.978;2023-04-01T01:58:36;99054.75;;;12.60;63.37
20825;BME280;10573;50.936;6.978;2023-04-01T02:01:12;99062.88;;;12.47;64.06
20825;BME280;10573;50.936;6.978;2023-04-01T02:03:39;99054.13;;;12.30;65.15
20825;BME280;10573;50.936;6.978;2023-04-01T02:06:06;99062.09;;;12.31;65.64
20825;BME280;10573;50.936;6.978;2023-04-01T02:11:02;99055.34;;;12.55;65.40
20825;BME280;10573;50.936;6.978;2023-04-01T02:13:34;99065.66;;;12.25;66.25
20825;BME280;10573;50.936;6.978;2023-04-01T02:16:02;99060.22;;;12.03;67.14
20825;BME280;10573;50.936;6.978;2023-04-01T02:18:33;99065.63;;;11.97;67.58
20825;BME280;10573;50.936;6.978;2023-04-01T02:20:59;99073.94;;;12.38;67.39
20825;BME280;10573;50.936;6.978;2023-04-01T02:23:25;99062.75;;;12.62;66.64
20825;BME280;10573;50.936;6.978;2023-04-01T02:25:51;99060.50;;;12.37;67.56
20825;BME280;10573;50.936;6.978;2023-04-01T02:28:17;99067.53;;;11.81;68.46
20825;BME280;10573;50.936;6.978;2023-04-01T02:30:45;99069.28;;;12.32;68.40
20825;BME280;10573;50.936;6.978;2023-04-01T02:33:12;99051.22;;;11.88;68.67
20825;BME280;10573;50.936;6.978;2023-04-01T02:35:38;99066.16;;;11.70;69.38
20825;BME280;10573;50.936;6.978;2023-04-01T02:38:03;99058.34;;;12.04;69.19
20825;BME280;10573;50.936;6.978;2023-04-01T02:40:39;99059.06;;;12.13;68.88
20825;BME280;10573;50.936;6.978;2023-04-01T02:43:05;99057.91;;;11.85;69.05
20825;BME280;10573;50.936;6.978;2023-04-01T02:45:30;99053.19;;;11.94;69.85
20825;BME280;10573;50.936;6.978;2023-04-01T02:47:56;99064.22;;;11.64;70.36
20825;BME280;10573;50.936;6.978;2023-04-01T02:50:21;99057.34;;;11.68;70.59
20825;BME280;10573;50.936;6.978;2023-04-01T02:52:46;99046.81;;;11.65;70.82
20825;BME280;10573;50.936;6.978;2023-04-01T02:55:12;99056.56;;;11.74;70.51
20825;BME280;10573;50.936;6.978;2023-04-01T02:57:37;99049.78;;;11.92;69.65
20825;BME280;10573;50.936;6.978;2023-04-01T03:00:02;99054.44;;;11.70;70.34
20825;BME280;10573;50.936;6.978;2023-04-01T03:02:28;99043.25;;;11.43;70.19
20825;BME280;10573;50.936;6.978;2023-04-01T03:04:53;99046.16;;;11.41;70.17
20825;BME280;10573;50.936;6.978;2023-04-01T03:07:18;99045.97;;;11.86;69.19
20825;BME280;10573;50.936;6.978;2023-04-01T03:09:44;99055.13;;;11.57;69.72
20825;BME280;10573;50.936;6.978;2023-04-01T03:12:09;99053.19;;;11.51;69.75
20825;BME280;10573;50.936;6.978;2023-04-01T03:14:35;99051.22;;;11.45;69.78
20825;BME280;10573;50.936;6.978;2023-04-01T03:17:00;99051.31;;;11.95;68.90
20825;BME280;10573;50.936;6.978;2023-04-01T03:19:25;99057.44;;;11.75;68.78
20825;BME280;10573;50.936;6.978;2023-04-01T03:21:51;99063.31;;;11.79;68.73
20825;BME280;10573;50.936;6.978;2023-04-01T03:24:16;99058.34;;;12.04;68.55
20825;BME280;10573;50.936;6.978;2023-04-01T03:26:41;99060.09;;;12.12;67.85
20825;BME280;10573;50.936;6.978;2023-04-01T03:29:06;99063.38;;;11.85;67.77
20825;BME280;10573;50.936;6.978;2023-04-01T03:31:32;99062.69;;;11.98;67.89
20825;BME280;10573;50.936;6.978;2023-04-01T03:33:57;99060.72;;;12.14;67.57
20825;BME280;10573;50.936;6.978;2023-04-01T03:36:22;99061.91;;;12.04;67.84
20825;BME280;10573;50.936;6.978;2023-04-01T03:38:48;99063.19;;;12.08;67.42
20825;BME280;10573;50.936;6.978;2023-04-01T03:41:13;99059.41;;;12.09;67.65
20825;BME280;10573;50.936;6.978;2023-04-01T03:43:39;99065.09;;;12.36;67.24
20825;BME280;10573;50.936;6.978;2023-04-01T03:46:05;99069.41;;;12.24;66.81
20825;BME280;10573;50.936;6.978;2023-04-01T03:48:30;99059.16;;;12.26;66.82
20825;BME280;10573;50.936;6.978;2023-04-01T03:50:55;99070.13;;;12.33;67.38
20825;BME280;10573;50.936;6.978;2023-04-01T03:53:20;99055.66;;;12.11;66.74
20825;BME280;10573;50.936;6.978;2023-04-01T03:55:46;99068.84;;;12.35;67.26
20825;BME280;10573;50.936;6.978;2023-04-01T03:58:11;99061.22;;;12.24;66.70
20825;BME280;10573;50.936;6.978;2023-04-01T04:00:37;99070.41;;;12.45;66.12
20825;BME280;10573;50.936;6.978;2023-04-01T04:03:02;99067.56;;;12.59;66.72
20825;BME280;10573;50.936;6.978;2023-04-01T04:05:27;99066.47;;;12.54;65.53
20825;BME280;10573;50.936;6.978;2023-04-01T04:07:53;99068.72;;;12.72;64.97
20825;BME280;10573;50.936;6.978;2023-04-01T04:10:18;99065.19;;;12.50;65.69
20825;BME280;10573;50.936;6.978;2023-04-01T04:12:44;99078.59;;;12.45;65.36
20825;BME280;10573;50.936;6.978;2023-04-01T04:15:09;99076.56;;;12.53;65.46
20825;BME280;10573;50.936;6.978;2023-04-01T04:17:35;99074.50;;;12.05;65.82
20825;BME280;10573;50.936;6.978;2023-04-01T04:20:00;99075.59;;;12.33;64.62
20825;BME280;10573;50.936;6.978;2023-04-01T04:22:26;99077.09;;;12.42;64.84
20825;BME280;10573;50.936;6.978;2023-04-01T04:24:51;99079.78;;;12.35;65.09
20825;BME280;10573;50.936;6.978;2023-04-01T04:27:17;99079.66;;;12.44;64.54
20825;BME280;10573;50.936;6.978;2023-04-01T04:29:42;99074.03;;;12.52;64.56
20825;BME280;10573;50.936;6.978;2023-04-01T04:32:07;99081.84;;;12.55;64.88
20825;BME280;10573;50.936;6.978;2023-04-01T04:34:33;99080.25;;;12.39;65.02
20825;BME280;10573;50.936;6.978;2023-04-01T04:36:58;99081.47;;;12.36;64.78
20825;BME280;10573;50.936;6.978;2023-04-01T04:39:23;99075.88;;;12.45;65.09
20825;BME280;10573;50.936;6.978;2023-04-01T04:41:49;99077.34;;;12.47;65.21
20825;BME280;10573;50.936;6.978;2023-04-01T04:44:14;99077.66;;;12.31;65.85
20825;BME280;10573;50.936;6.978;2023-04-01T04:46:40;99086.47;;;12.26;66.17
20825;BME280;10573;50.936;6.978;2023-04-01T04:49:05;99082.09;;;12.60;65.77
20825;BME280;10573;50.936;6.978;2023-04-01T04:51:31;99086.63;;;12.53;66.39
20825;BME280;10573;50.936;6.978;2023-04-01T04:53:59;99087.81;;;12.37;66.37
20825;BME280;10573;50.936;6.978;2023-04-01T04:56:24;99092.91;;;12.47;66.36
20825;BME280;10573;50.936;6.978;2023-04-01T04:58:51;99095.19;;;12.43;66.90
20825;BME280;10573;50.936;6.978;2023-04-01T05:01:16;99101.41;;;12.30;66.91
20825;BME280;10573;50.936;6.978;2023-04-01T05:03:41;99094.66;;;12.26;67.39
20825;BME280;10573;50.936;6.978;2023-04-01T05:06:07;99093.06;;;12.38;66.80
20825;BME280;10573;50.936;6.978;2023-04-01T05:08:33;99102.50;;;12.36;67.11
20825;BME280;10573;50.936;6.978;2023-04-01T05:10:59;99099.16;;;12.40;67.32
20825;BME280;10573;50.936;6.978;2023-04-01T05:13:25;99101.72;;;12.20;67.62
20825;BME280;10573;50.936;6.978;2023-04-01T05:15:50;99105.41;;;12.34;67.60
20825;BME280;10573;50.936;6.978;2023-04-01T05:18:15;99110.00;;;12.05;67.97
20825;BME280;10573;50.936;6.978;2023-04-01T05:20:47;99112.31;;;12.08;68.08
20825;BME280;10573;50.936;6.978;2023-04-01T05:23:13;99107.59;;;12.46;67.59
20825;BME280;10573;50.936;6.978;2023-04-01T05:25:38;99114.75;;;12.47;67.29
20825;BME280;10573;50.936;6.978;2023-04-01T05:28:04;99110.78;;;12.21;67.83
20825;BME280;10573;50.936;6.978;2023-04-01T05:30:29;99107.63;;;12.24;68.35
20825;BME280;10573;50.936;6.978;2023-04-01T05:32:54;99113.66;;;12.13;68.70
20825;BME280;10573;50.936;6.978;2023-04-01T05:35:20;99120.34;;;12.10;68.94
20825;BME280;10573;50.936;6.978;2023-04-01T05:37:45;99121.63;;;12.14;69.05
20825;BME280;10573;50.936;6.978;2023-04-01T05:40:10;99124.66;;;12.04;69.01
20825;BME280;10573;50.936;6.978;2023-04-01T05:42:36;99117.50;;;11.82;70.74
20825;BME280;10573;50.936;6.978;2023-04-01T05:45:01;99133.34;;;11.71;71.34
20825;BME280;10573;50.936;6.978;2023-04-01T05:47:26;99124.13;;;11.72;71.24
20825;BME280;10573;50.936;6.978;2023-04-01T05:49:52;99131.38;;;11.65;71.80
20825;BME280;10573;50.936;6.978;2023-04-01T05:52:17;99136.94;;;11.57;72.13
20825;BME280;10573;50.936;6.978;2023-04-01T05:54:42;99125.28;;;11.63;72.04
20825;BME280;10573;50.936;6.978;2023-04-01T05:57:08;99129.09;;;12.05;71.00
20825;BME280;10573;50.936;6.978;2023-04-01T05:59:33;99132.63;;;11.48;72.45
20825;BME280;10573;50.936;6.978;2023-04-01T06:02:00;99139.78;;;11.49;73.03
20825;BME280;10573;50.936;6.978;2023-04-01T06:04:26;99135.34;;;11.99;72.61
20825;BME280;10573;50.936;6.978;2023-04-01T06:06:53;99139.53;;;12.02;72.32
20825;BME280;10573;50.936;6.978;2023-04-01T06:09:19;99130.59;;;11.71;73.74
20825;BME280;10573;50.936;6.978;2023-04-01T06:15:20;99151.41;;;11.72;73.19
20825;BME280;10573;50.936;6.978;2023-04-01T06:17:28;99153.97;;;11.59;73.76
20825;BME280;10573;50.936;6.978;2023-04-01T06:19:58;99147.53;;;11.67;73.50
20825;BME280;10573;50.936;6.978;2023-04-01T06:27:55;99150.50;;;11.50;74.44
20825;BME280;10573;50.936;6.978;2023-04-01T06:30:28;99145.94;;;11.72;73.62
20825;BME280;10573;50.936;6.978;2023-04-01T06:35:53;99159.78;;;11.56;74.24
20825;BME280;10573;50.936;6.978;2023-04-01T06:38:30;99161.69;;;11.92;72.98
20825;BME280;10573;50.936;6.978;2023-04-01T06:41:03;99150.63;;;11.79;72.98
20825;BME280;10573;50.936;6.978;2023-04-01T06:54:04;99164.41;;;11.92;72.35
20825;BME280;10573;50.936;6.978;2023-04-01T06:56:31;99172.63;;;11.77;73.03
20825;BME280;10573;50.936;6.978;2023-04-01T06:59:05;99169.31;;;11.97;72.27
20825;BME280;10573;50.936;6.978;2023-04-01T07:01:39;99166.78;;;11.95;72.66
20825;BME280;10573;50.936;6.978;2023-04-01T07:04:09;99171.38;;;11.95;72.35
20825;BME280;10573;50.936;6.978;2023-04-01T07:06:38;99180.56;;;11.93;72.28
20825;BME280;10573;50.936;6.978;2023-04-01T07:09:06;99172.75;;;12.05;72.38
20825;BME280;10573;50.936;6.978;2023-04-01T07:11:35;99174.53;;;11.77;72.96
20825;BME280;10573;50.936;6.978;2023-04-01T07:14:02;99186.22;;;11.92;72.78
20825;BME280;10573;50.936;6.978;2023-04-01T07:21:31;99182.28;;;11.58;74.07
20825;BME280;10573;50.936;6.978;2023-04-01T07:24:02;99185.28;;;11.63;74.51
20825;BME280;10573;50.936;6.978;2023-04-01T07:26:29;99187.16;;;11.48;74.41
20825;BME280;10573;50.936;6.978;2023-04-01T07:28:54;99183.03;;;11.37;75.13
20825;BME280;10573;50.936;6.978;2023-04-01T07:31:25;99206.94;;;11.50;74.97
20825;BME280;10573;50.936;6.978;2023-04-01T07:34:01;99212.50;;;11.41;75.32
20825;BME280;10573;50.936;6.978;2023-04-01T07:36:53;99196.31;;;11.55;75.12
20825;BME280;10573;50.936;6.978;2023-04-01T07:44:25;99220.06;;;11.61;74.63
20825;BME280;10573;50.936;6.978;2023-04-01T07:52:00;99223.34;;;11.71;75.17
20825;BME280;10573;50.936;6.978;2023-04-01T07:54:30;99219.53;;;11.51;75.92
20825;BME280;10573;50.936;6.978;2023-04-01T07:59:45;99227.78;;;11.72;75.71
20825;BME280;10573;50.936;6.978;2023-04-01T08:10:24;99246.25;;;12.07;75.21
20825;BME280;10573;50.936;6.978;2023-04-01T08:13:02;99245.22;;;11.93;75.34
20825;BME280;10573;50.936;6.978;2023-04-01T08:22:57;99258.53;;;11.96;75.45
20825;BME280;10573;50.936;6.978;2023-04-01T08:25:25;99262.63;;;11.92;75.38
20825;BME280;10573;50.936;6.978;2023-04-01T08:27:51;99262.00;;;11.90;75.42
20825;BME280;10573;50.936;6.978;2023-04-01T08:30:25;99260.22;;;11.82;75.11
20825;BME280;10573;50.936;6.978;2023-04-01T08:33:01;99270.38;;;11.88;75.27
20825;BME280;10573;50.936;6.978;2023-04-01T08:35:31;99270.00;;;12.06;75.32
20825;BME280;10573;50.936;6.978;2023-04-01T08:38:00;99273.78;;;11.75;75.26
20825;BME280;10573;50.936;6.978;2023-04-01T08:42:58;99272.75;;;11.77;75.61
20825;BME280;10573;50.936;6.978;2023-04-01T08:45:44;99284.97;;;11.96;75.62
20825;BME280;10573;50.936;6.978;2023-04-01T08:53:35;99290.78;;;12.07;74.45
20825;BME280;10573;50.936;6.978;2023-04-01T08:58:54;99290.31;;;11.89;74.77
20825;BME280;10573;50.936;6.978;2023-04-01T09:03:52;99308.19;;;12.43;73.67
20825;BME280;10573;50.936;6.978;2023-04-01T09:06:37;99296.41;;;12.21;73.49
20825;BME280;10573;50.936;6.978;2023-04-01T09:09:09;99300.13;;;12.35;73.18
20825;BME280;10573;50.936;6.978;2023-04-01T09:12:06;99316.16;;;12.23;73.84
20825;BME280;10573;50.936;6.978;2023-04-01T09:27:45;99323.56;;;12.07;75.77
20825;BME280;10573;50.936;6.978;2023-04-01T09:43:27;99338.00;;;12.59;74.25
20825;BME280;10573;50.936;6.978;2023-04-01T09:45:57;99347.25;;;12.58;74.69
20825;BME280;10573;50.936;6.978;2023-04-01T09:53:36;99353.00;;;12.49;74.49
20825;BME280;10573;50.936;6.978;2023-04-01T09:58:53;99353.78;;;12.42;73.39
20825;BME280;10573;50.936;6.978;2023-04-01T10:09:05;99371.88;;;12.44;72.74
20825;BME280;10573;50.936;6.978;2023-04-01T10:22:12;99381.03;;;12.72;71.21
20825;BME280;10573;50.936;6.978;2023-04-01T10:27:30;99395.56;;;12.58;71.40
20825;BME280;10573;50.936;6.978;2023-04-01T10:37:43;99406.09;;;12.76;70.88
20825;BME280;10573;50.936;6.978;2023-04-01T10:45:47;99401.72;;;12.82;70.59
20825;BME280;10573;50.936;6.978;2023-04-01T10:48:28;99404.94;;;13.07;69.98
20825;BME280;10573;50.936;6.978;2023-04-01T10:53:44;99408.94;;;12.53;71.83
20825;BME280;10573;50.936;6.978;2023-04-01T11:07:08;99403.59;;;13.39;68.27
20825;BME280;10573;50.936;6.978;2023-04-01T11:17:59;99412.00;;;13.66;68.14
20825;BME280;10573;50.936;6.978;2023-04-01T11:20:45;99417.25;;;13.39;68.10
20825;BME280;10573;50.936;6.978;2023-04-01T11:23:32;99416.34;;;13.82;67.20
20825;BME280;10573;50.936;6.978;2023-04-01T11:29:00;99423.59;;;13.68;67.09
20825;BME280;10573;50.936;6.978;2023-04-01T11:31:45;99428.53;;;14.08;66.11
20825;BME280;10573;50.936;6.978;2023-04-01T11:41:56;99445.66;;;13.38;67.64
20825;BME280;10573;50.936;6.978;2023-04-01T11:44:26;99451.22;;;13.30;67.92
20825;BME280;10573;50.936;6.978;2023-04-01T11:52:11;99447.63;;;13.45;66.68
20825;BME280;10573;50.936;6.978;2023-04-01T11:59:57;99460.38;;;13.37;67.85
20825;BME280;10573;50.936;6.978;2023-04-01T12:10:26;99477.84;;;13.36;67.81
20825;BME280;10573;50.936;6.978;2023-04-01T12:18:05;99478.31;;;13.68;65.56
20825;BME280;10573;50.936;6.978;2023-04-01T12:20:37;99464.72;;;14.03;64.87
20825;BME280;10573;50.936;6.978;2023-04-01T12:30:48;99487.53;;;14.81;62.46
20825;BME280;10573;50.936;6.978;2023-04-01T12:40:44;99497.13;;;14.00;64.97
20825;BME280;10573;50.936;6.978;2023-04-01T12:46:03;99499.41;;;13.96;65.64
20825;BME280;10573;50.936;6.978;2023-04-01T12:48:49;99506.03;;;14.08;65.37
20825;BME280;10573;50.936;6.978;2023-04-01T12:51:26;99501.53;;;13.94;65.14
20825;BME280;10573;50.936;6.978;2023-04-01T12:59:23;99512.72;;;13.77;64.83
20825;BME280;10573;50.936;6.978;2023-04-01T13:07:15;99514.94;;;13.89;64.94
20825;BME280;10573;50.936;6.978;2023-04-01T13:28:15;99553.66;;;13.64;65.64
20825;BME280;10573;50.936;6.978;2023-04-01T13:30:44;99551.84;;;13.50;66.29
20825;BME280;10573;50.936;6.978;2023-04-01T13:36:08;99545.84;;;13.83;65.35
20825;BME280;10573;50.936;6.978;2023-04-01T13:44:02;99554.84;;;13.98;64.92
20825;BME280;10573;50.936;6.978;2023-04-01T13:52:05;99554.06;;;13.61;67.37
20825;BME280;10573;50.936;6.978;2023-04-01T13:59:59;99570.19;;;13.56;68.21
20825;BME280;10573;50.936;6.978;2023-04-01T14:04:58;99570.88;;;13.58;67.68
20825;BME280;10573;50.936;6.978;2023-04-01T14:10:07;99577.50;;;13.92;66.81
20825;BME280;10573;50.936;6.978;2023-04-01T14:12:39;99584.50;;;13.95;66.72
20825;BME280;10573;50.936;6.978;2023-04-01T14:22:44;99581.03;;;13.64;68.01
20825;BME280;10573;50.936;6.978;2023-04-01T14:28:08;99589.00;;;13.44;68.62
20825;BME280;10573;50.936;6.978;2023-04-01T14:35:40;99599.28;;;13.79;67.98
20825;BME280;10573;50.936;6.978;2023-04-01T14:41:51;99616.00;;;13.32;70.32
20825;BME280;10573;50.936;6.978;2023-04-01T14:49:23;99613.63;;;13.59;70.87
20825;BME280;10573;50.936;6.978;2023-04-01T14:51:55;99611.59;;;13.16;71.48
20825;BME280;10573;50.936;6.978;2023-04-01T14:54:33;99617.34;;;13.36;71.76
20825;BME280;10573;50.936;6.978;2023-04-01T14:57:11;99602.19;;;13.55;70.79
20825;BME280;10573;50.936;6.978;2023-04-01T15:08:09;99625.09;;;13.91;68.06
20825;BME280;10573;50.936;6.978;2023-04-01T15:24:18;99648.56;;;13.79;68.12
20825;BME280;10573;50.936;6.978;2023-04-01T15:36:57;99654.97;;;13.71;67.10
20825;BME280;10573;50.936;6.978;2023-04-01T15:57:36;99689.59;;;13.42;65.67
20825;BME280;10573;50.936;6.978;2023-04-01T16:00:13;99687.75;;;13.79;65.80
20825;BME280;10573;50.936;6.978;2023-04-01T16:05:22;99690.59;;;13.26;67.27
20825;BME280;10573;50.936;6.978;2023-04-01T16:26:07;99717.59;;;13.59;67.76
20825;BME280;10573;50.936;6.978;2023-04-01T16:28:39;99725.16;;;13.42;68.02
20825;BME280;10573;50.936;6.978;2023-04-01T16:31:09;99722.94;;;13.07;69.47
20825;BME280;10573;50.936;6.978;2023-04-01T16:33:40;99724.81;;;12.92;70.00
20825;BME280;10573;50.936;6.978;2023-04-01T16:41:37;99730.41;;;12.75;71.39
20825;BME280;10573;50.936;6.978;2023-04-01T16:44:20;99738.13;;;12.57;71.46
20825;BME280;10573;50.936;6.978;2023-04-01T16:46:49;99746.47;;;12.79;70.73
20825;BME280;10573;50.936;6.978;2023-04-01T16:49:23;99752.88;;;12.86;71.23
20825;BME280;10573;50.936;6.978;2023-04-01T16:52:29;99756.31;;;12.65;71.54
20825;BME280;10573;50.936;6.978;2023-04-01T16:59:43;99768.56;;;12.92;71.36
20825;BME280;10573;50.936;6.978;2023-04-01T17:02:11;99762.00;;;12.78;70.94
20825;BME280;10573;50.936;6.978;2023-04-01T17:07:19;99779.19;;;12.87;70.66
20825;BME280;10573;50.936;6.978;2023-04-01T17:13:09;99775.13;;;12.83;71.20
20825;BME280;10573;50.936;6.978;2023-04-01T17:15:32;99782.09;;;12.62;71.80
20825;BME280;10573;50.936;6.978;2023-04-01T17:22:54;99791.88;;;12.80;71.50
20825;BME280;10573;50.936;6.978;2023-04-01T17:36:09;99809.97;;;12.34;73.74
20825;BME280;10573;50.936;6.978;2023-04-01T17:38:46;99814.00;;;12.47;72.86
20825;BME280;10573;50.936;6.978;2023-04-01T17:41:28;99820.91;;;12.57;72.88
20825;BME280;10573;50.936;6.978;2023-04-01T17:43:58;99822.94;;;12.32;73.42
20825;BME280;10573;50.936;6.978;2023-04-01T17:49:23;99832.47;;;12.36;73.88
20825;BME280;10573;50.936;6.978;2023-04-01T17:51:55;99835.22;;;12.36;74.08
20825;BME280;10573;50.936;6.978;2023-04-01T17:59:39;99844.94;;;12.62;72.77
20825;BME280;10573;50.936;6.978;2023-04-01T18:04:46;99859.88;;;12.51;73.34
20825;BME280;10573;50.936;6.978;2023-04-01T18:07:23;99864.22;;;12.37;73.78
20825;BME280;10573;50.936;6.978;2023-04-01T18:09:57;99864.69;;;12.09;74.05
20825;BME280;10573;50.936;6.978;2023-04-01T18:12:36;99869.06;;;12.27;73.40
20825;BME280;10573;50.936;6.978;2023-04-01T18:20:31;99879.91;;;12.04;74.10
20825;BME280;10573;50.936;6.978;2023-04-01T18:22:55;99886.72;;;12.08;74.23
20825;BME280;10573;50.936;6.978;2023-04-01T18:25:32;99888.28;;;12.02;74.12
20825;BME280;10573;50.936;6.978;2023-04-01T18:30:37;99895.75;;;12.17;74.13
20825;BME280;10573;50.936;6.978;2023-04-01T18:33:29;99896.06;;;12.14;74.22
20825;BME280;10573;50.936;6.978;2023-04-01T18:35:54;99901.22;;;12.08;74.39
20825;BME280;10573;50.936;6.978;2023-04-01T18:38:36;99908.56;;;12.08;74.22
20825;BME280;10573;50.936;6.978;2023-04-01T18:41:12;99911.28;;;12.08;73.66
20825;BME280;10573;50.936;6.978;2023-04-01T18:46:26;99919.88;;;11.88;74.62
20825;BME280;10573;50.936;6.978;2023-04-01T18:48:57;99926.28;;;12.12;74.18
20825;BME280;10573;50.936;6.978;2023-04-01T18:57:08;99934.63;;;12.19;74.45
20825;BME280;10573;50.936;6.978;2023-04-01T18:59:45;99936.00;;;12.15;74.37
20825;BME280;10573;50.936;6.978;2023-04-01T19:02:32;99940.78;;;12.21;74.39
20825;BME280;10573;50.936;6.978;2023-04-01T19:10:12;99954.63;;;12.03;75.24
20825;BME280;10573;50.936;6.978;2023-04-01T19:12:56;99952.56;;;12.13;74.68
20825;BME280;10573;50.936;6.978;2023-04-01T19:18:13;99963.38;;;11.82;75.30
20825;BME280;10573;50.936;6.978;2023-04-01T19:26:29;99972.03;;;11.93;74.52
20825;BME280;10573;50.936;6.978;2023-04-01T19:28:54;99979.06;;;11.71;75.19
20825;BME280;10573;50.936;6.978;2023-04-01T19:34:02;99974.59;;;11.87;74.79
20825;BME280;10573;50.936;6.978;2023-04-01T19:36:42;99977.16;;;12.13;73.99
20825;BME280;10573;50.936;6.978;2023-04-01T19:41:47;99979.25;;;11.70;75.34
20825;BME280;10573;50.936;6.978;2023-04-01T19:47:04;99984.19;;;11.58;76.06
20825;BME280;10573;50.936;6.978;2023-04-01T19:49:38;99986.22;;;11.64;76.11
20825;BME280;10573;50.936;6.978;2023-04-01T20:08:06;100005.31;;;11.81;75.19
20825;BME280;10573;50.936;6.978;2023-04-01T20:10:42;100006.84;;;11.58;75.16
20825;BME280;10573;50.936;6.978;2023-04-01T20:15:43;100018.28;;;11.54;75.49
20825;BME280;10573;50.936;6.978;2023-04-01T20:18:16;100022.38;;;11.74;74.71
20825;BME280;10573;50.936;6.978;2023-04-01T20:20:51;100024.41;;;11.89;74.13
20825;BME280;10573;50.936;6.978;2023-04-01T20:23:24;100024.25;;;11.82;74.52
20825;BME280;10573;50.936;6.978;2023-04-01T20:25:52;100036.72;;;11.77;74.46
20825;BME280;10573;50.936;6.978;2023-04-01T20:30:52;100036.34;;;11.88;74.44
20825;BME280;10573;50.936;6.978;2023-04-01T20:33:44;100049.16;;;11.87;74.32
20825;BME280;10573;50.936;6.978;2023-04-01T20:41:09;100052.56;;;11.56;75.46
20825;BME280;10573;50.936;6.978;2023-04-01T20:43:39;100053.56;;;11.64;75.48
20825;BME280;10573;50.936;6.978;2023-04-01T20:48:58;100051.91;;;11.79;75.26
20825;BME280;10573;50.936;6.978;2023-04-01T20:51:22;100062.13;;;11.77;75.39
20825;BME280;10573;50.936;6.978;2023-04-01T20:53:59;100056.47;;;11.62;75.42
20825;BME280;10573;50.936;6.978;2023-04-01T21:02:05;100062.81;;;11.79;75.31
20825;BME280;10573;50.936;6.978;2023-04-01T21:04:44;100068.75;;;11.91;75.22
20825;BME280;10573;50.936;6.978;2023-04-01T21:17:38;100070.13;;;11.54;76.85
20825;BME280;10573;50.936;6.978;2023-04-01T21:20:22;100079.00;;;11.72;76.02
20825;BME280;10573;50.936;6.978;2023-04-01T21:22:57;100084.44;;;11.56;76.49
20825;BME280;10573;50.936;6.978;2023-04-01T21:30:39;100098.94;;;11.48;76.26
20825;BME280;10573;50.936;6.978;2023-04-01T21:38:24;100097.22;;;10.96;77.58
20825;BME280;10573;50.936;6.978;2023-04-01T22:07:25;100125.41;;;11.81;76.04
20825;BME280;10573;50.936;6.978;2023-04-01T22:12:35;100131.34;;;11.68;75.88
20825;BME280;10573;50.936;6.978;2023-04-01T22:15:10;100127.56;;;11.44;76.84